ROYN/OGN METAR and TAF weather

Enter ICAO airport designator
Station Type Date Time Source
ROYN METAR 2020/04/06 10:00 UTC NOAA

ROYN 061000Z AUTO 09005KT 060V120 9999 -RA FEW013 SCT041 BKN050 19/18 Q1015


Station Type Date Time Source
ROYN Decoded METAR 2020/04/06 10:00 UTC NOAA

Yonaguni Airport, Japan (ROYN) 24-28N 122-59E 19M
Apr 06, 2020 - 06:00 AM EDT / 2020.04.06 1000 UTC
Wind: from the E (090 degrees) at 6 MPH (5 KT) (direction variable):0
Visibility: greater than 7 mile(s):0
Sky conditions: mostly cloudy
Weather: light rain
Temperature: 66 F (19 C)
Dew Point: 64 F (18 C)
Relative Humidity: 93%
Pressure (altimeter): 29.97 in. Hg (1015 hPa)
ob: ROYN 061000Z AUTO 09005KT 060V120 9999 -RA FEW013 SCT041 BKN050 19/18 Q1015
cycle: 10

Station Type Date Time Source
ROYN TAF UTC NOAA

Error!

Example: see airport list